Time,TemperatureF,DewpointF,PressureIn,WindDirection,WindDirectionDegrees,WindSpeedMPH,WindSpeedGustMPH,Humidity,HourlyPrecipIn,Conditions,Clouds,dailyrainin,SoftwareType,DateUTC
2013-04-29 00:02:00,54.0,-99.9,29.91,WSW,256,4.0,6.0,-999,-99.99,,,-99.99,,2013-04-29 07:02:00,
2013-04-29 00:11:00,54.0,-99.9,29.91,SW,232,4.0,6.0,-999,-99.99,,,-99.99,,2013-04-29 07:11:00,
2013-04-29 00:22:00,54.0,-99.9,29.91,North,-999,-999.0,-999.0,-999,-99.99,,,-99.99,,2013-04-29 07:22:00,
2013-04-29 00:32:00,54.0,-99.9,29.91,SW,235,2.0,6.0,-999,-99.99,,,-99.99,,2013-04-29 07:32:00,
2013-04-29 00:42:00,-999.0,-99.9,29.91,WSW,255,3.0,5.0,-999,-99.99,,,-99.99,,2013-04-29 07:42:00,
2013-04-29 00:52:00,-999.0,-99.9,29.91,WSW,244,5.0,8.0,-999,-99.99,,,-99.99,,2013-04-29 07:52:00,
2013-04-29 01:03:00,54.0,-99.9,29.91,SW,236,7.0,10.0,-999,-99.99,,,-99.99,,2013-04-29 08:03:00,
2013-04-29 01:11:00,54.0,-99.9,29.91,WSW,242,8.0,13.0,-999,-99.99,,,-99.99,,2013-04-29 08:11:00,
2013-04-29 01:22:00,54.0,-99.9,29.91,SW,234,7.0,11.0,-999,-99.99,,,-99.99,,2013-04-29 08:22:00,
2013-04-29 01:32:00,54.0,-99.9,29.91,WSW,240,5.0,11.0,-999,-99.99,,,-99.99,,2013-04-29 08:32:00,
2013-04-29 01:42:00,54.0,-99.9,29.91,West,262,5.0,10.0,-999,-99.99,,,-99.99,,2013-04-29 08:42:00,
2013-04-29 01:52:00,54.0,-99.9,29.91,West,264,3.0,6.0,-999,-99.99,,,-99.99,,2013-04-29 08:52:00,
2013-04-29 02:02:00,54.0,-99.9,29.90,SW,233,4.0,6.0,-999,-99.99,,,-99.99,,2013-04-29 09:02:00,
2013-04-29 02:12:00,54.0,-99.9,29.90,WSW,258,3.0,8.0,-999,-99.99,,,-99.99,,2013-04-29 09:12:00,
2013-04-29 02:22:00,54.0,-99.9,29.90,WNW,290,3.0,5.0,-999,-99.99,,,-99.99,,2013-04-29 09:22:00,
2013-04-29 02:33:00,54.0,-99.9,29.90,WSW,258,1.0,6.0,-999,-99.99,,,-99.99,,2013-04-29 09:33:00,
2013-04-29 02:42:00,54.0,-99.9,29.89,WNW,300,2.0,5.0,-999,-99.99,,,-99.99,,2013-04-29 09:42:00,
2013-04-29 02:53:00,53.0,-99.9,29.90,WSW,257,3.0,6.0,-999,-99.99,,,-99.99,,2013-04-29 09:53:00,
2013-04-29 03:03:00,53.0,-99.9,29.89,West,274,3.0,7.0,-999,-99.99,,,-99.99,,2013-04-29 10:03:00,
2013-04-29 03:12:00,53.0,-99.9,29.90,WNW,301,2.0,5.0,-999,-99.99,,,-99.99,,2013-04-29 10:12:00,
2013-04-29 03:32:00,53.0,-99.9,29.90,SW,234,2.0,5.0,-999,-99.99,,,-99.99,,2013-04-29 10:32:00,
2013-04-29 03:42:00,53.0,-99.9,29.89,WSW,249,0.0,2.0,-999,-99.99,,,-99.99,,2013-04-29 10:42:00,
2013-04-29 03:52:00,-999.0,-99.9,29.88,SSW,198,4.0,7.0,-999,-99.99,,,-99.99,,2013-04-29 10:52:00,
2013-04-29 04:03:00,53.0,-99.9,29.88,WNW,283,2.0,4.0,-999,-99.99,,,-99.99,,2013-04-29 11:03:00,
2013-04-29 04:12:00,-999.0,-99.9,29.88,WSW,243,5.0,8.0,-999,-99.99,,,-99.99,,2013-04-29 11:12:00,
2013-04-29 04:22:00,54.0,-99.9,29.88,WSW,251,2.0,3.0,-999,-99.99,,,-99.99,,2013-04-29 11:22:00,
2013-04-29 04:32:00,54.0,-99.9,29.88,WSW,251,2.0,3.0,-999,-99.99,,,-99.99,,2013-04-29 11:32:00,
2013-04-29 04:42:00,53.0,-99.9,29.88,SW,216,4.0,5.0,-999,-99.99,,,-99.99,,2013-04-29 11:42:00,
2013-04-29 04:52:00,53.0,-99.9,29.88,SSW,208,4.0,6.0,-999,-99.99,,,-99.99,,2013-04-29 11:52:00,
2013-04-29 05:01:00,-999.0,-99.9,29.88,SSW,209,4.0,7.0,-999,-99.99,,,-99.99,,2013-04-29 12:01:00,
2013-04-29 05:12:00,53.0,-99.9,29.88,West,270,4.0,6.0,-999,-99.99,,,-99.99,,2013-04-29 12:12:00,
2013-04-29 05:22:00,53.0,-99.9,29.88,SSW,195,3.0,4.0,-999,-99.99,,,-99.99,,2013-04-29 12:22:00,
2013-04-29 05:32:00,53.0,-99.9,29.88,SSW,201,2.0,4.0,-999,-99.99,,,-99.99,,2013-04-29 12:32:00,
2013-04-29 05:42:00,-999.0,-99.9,29.88,SSW,200,2.0,4.0,-999,-99.99,,,-99.99,,2013-04-29 12:42:00,
2013-04-29 05:52:00,53.0,-99.9,29.88,WSW,237,1.0,2.0,-999,-99.99,,,-99.99,,2013-04-29 12:52:00,
2013-04-29 06:01:00,53.0,-99.9,29.88,WSW,244,4.0,6.0,-999,-99.99,,,-99.99,,2013-04-29 13:01:00,
2013-04-29 06:11:00,-999.0,-99.9,29.89,SSW,201,2.0,5.0,-999,-99.99,,,-99.99,,2013-04-29 13:11:00,
2013-04-29 06:22:00,-999.0,-99.9,29.89,SSW,203,2.0,3.0,-999,-99.99,,,-99.99,,2013-04-29 13:22:00,
2013-04-29 06:32:00,-999.0,-99.9,29.89,South,182,1.0,1.0,-999,-99.99,,,-99.99,,2013-04-29 13:32:00,
2013-04-29 06:42:00,53.0,-99.9,29.90,WNW,294,1.0,2.0,-999,-99.99,,,-99.99,,2013-04-29 13:42:00,
2013-04-29 06:52:00,53.0,-99.9,29.90,North,-999,-999.0,-999.0,-999,-99.99,,,-99.99,,2013-04-29 13:52:00,
2013-04-29 07:02:00,53.0,-99.9,29.90,SSW,205,1.0,3.0,-999,-99.99,,,-99.99,,2013-04-29 14:02:00,
2013-04-29 07:12:00,53.0,-99.9,29.91,SW,227,1.0,2.0,-999,-99.99,,,-99.99,,2013-04-29 14:12:00,
2013-04-29 07:22:00,54.0,-99.9,29.91,South,177,-999.0,2.0,-999,-99.99,,,-99.99,,2013-04-29 14:22:00,
2013-04-29 07:32:00,-999.0,-99.9,29.91,SSW,195,1.0,2.0,-999,-99.99,,,-99.99,,2013-04-29 14:32:00,
2013-04-29 07:42:00,56.0,-99.9,29.91,North,1,1.0,1.0,-999,-99.99,,,-99.99,,2013-04-29 14:42:00,
2013-04-29 07:52:00,56.0,-99.9,29.91,SE,142,2.0,2.0,-999,-99.99,,,-99.99,,2013-04-29 14:52:00,
2013-04-29 08:01:00,56.0,-99.9,29.91,East,93,2.0,2.0,-999,-99.99,,,-99.99,,2013-04-29 15:01:00,
2013-04-29 08:12:00,-999.0,-99.9,29.91,East,92,2.0,2.0,-999,-99.99,,,-99.99,,2013-04-29 15:12:00,
2013-04-29 08:22:00,59.0,-99.9,29.92,ENE,73,-999.0,1.0,-999,-99.99,,,-99.99,,2013-04-29 15:22:00,
2013-04-29 08:33:00,59.0,-99.9,29.92,NNW,329,2.0,4.0,-999,-99.99,,,-99.99,,2013-04-29 15:33:00,
2013-04-29 08:43:00,56.0,-99.9,29.92,NW,319,4.0,5.0,-999,-99.99,,,-99.99,,2013-04-29 15:43:00,
2013-04-29 08:53:00,-999.0,-99.9,29.92,NW,320,1.0,3.0,-999,-99.99,,,-99.99,,2013-04-29 15:53:00,
2013-04-29 09:03:00,58.0,-99.9,29.92,North,-999,-999.0,-999.0,-999,-99.99,,,-99.99,,2013-04-29 16:03:00,
2013-04-29 09:13:00,60.0,-99.9,29.92,North,-999,-999.0,-999.0,-999,-99.99,,,-99.99,,2013-04-29 16:13:00,
2013-04-29 09:23:00,62.0,-99.9,29.92,NNE,26,1.0,2.0,-999,-99.99,,,-99.99,,2013-04-29 16:23:00,
2013-04-29 09:33:00,60.0,-99.9,29.92,WSW,247,12.0,16.0,-999,-99.99,,,-99.99,,2013-04-29 16:33:00,
2013-04-29 09:42:00,58.0,-99.9,29.92,WSW,247,12.0,18.0,-999,-99.99,,,-99.99,,2013-04-29 16:42:00,
2013-04-29 09:52:00,58.0,-99.9,29.92,WSW,242,13.0,14.0,-999,-99.99,,,-99.99,,2013-04-29 16:52:00,
2013-04-29 10:02:00,58.0,-99.9,29.92,WSW,239,13.0,15.0,-999,-99.99,,,-99.99,,2013-04-29 17:02:00,
2013-04-29 10:12:00,59.0,-99.9,29.92,WSW,240,10.0,13.0,-999,-99.99,,,-99.99,,2013-04-29 17:12:00,
2013-04-29 10:23:00,-999.0,-99.9,29.92,SW,236,10.0,14.0,-999,-99.99,,,-99.99,,2013-04-29 17:23:00,
2013-04-29 10:32:00,61.0,-99.9,29.93,SW,235,2.0,6.0,-999,-99.99,,,-99.99,,2013-04-29 17:32:00,
2013-04-29 10:42:00,61.0,-99.9,29.93,WSW,254,8.0,13.0,-999,-99.99,,,-99.99,,2013-04-29 17:42:00,
2013-04-29 10:52:00,61.0,-99.9,29.92,WSW,240,7.0,12.0,-999,-99.99,,,-99.99,,2013-04-29 17:52:00,
2013-04-29 11:01:00,60.0,-99.9,29.92,WSW,248,7.0,11.0,-999,-99.99,,,-99.99,,2013-04-29 18:01:00,
2013-04-29 11:13:00,62.0,-99.9,29.92,West,276,6.0,10.0,-999,-99.99,,,-99.99,,2013-04-29 18:13:00,
2013-04-29 11:22:00,62.0,-99.9,29.92,WSW,240,11.0,15.0,-999,-99.99,,,-99.99,,2013-04-29 18:22:00,
2013-04-29 11:32:00,58.0,-99.9,29.92,SW,236,15.0,20.0,-999,-99.99,,,-99.99,,2013-04-29 18:32:00,
2013-04-29 11:42:00,58.0,-99.9,29.92,WSW,241,15.0,22.0,-999,-99.99,,,-99.99,,2013-04-29 18:42:00,
2013-04-29 11:52:00,57.0,-99.9,29.91,WSW,237,17.0,24.0,-999,-99.99,,,-99.99,,2013-04-29 18:52:00,
2013-04-29 12:01:00,57.0,-99.9,29.91,WSW,242,17.0,22.0,-999,-99.99,,,-99.99,,2013-04-29 19:01:00,
2013-04-29 12:12:00,58.0,-99.9,29.92,WSW,242,13.0,18.0,-999,-99.99,,,-99.99,,2013-04-29 19:12:00,
2013-04-29 12:22:00,58.0,-99.9,29.91,WSW,244,13.0,20.0,-999,-99.99,,,-99.99,,2013-04-29 19:22:00,
2013-04-29 12:32:00,59.0,-99.9,29.91,WSW,246,12.0,19.0,-999,-99.99,,,-99.99,,2013-04-29 19:32:00,
2013-04-29 12:42:00,-999.0,-99.9,29.91,WSW,240,13.0,17.0,-999,-99.99,,,-99.99,,2013-04-29 19:42:00,
2013-04-29 12:52:00,60.0,-99.9,29.91,North,-999,-999.0,-999.0,-999,-99.99,,,-99.99,,2013-04-29 19:52:00,
2013-04-29 13:02:00,60.0,-99.9,29.90,North,-999,-999.0,-999.0,-999,-99.99,,,-99.99,,2013-04-29 20:02:00,
2013-04-29 13:12:00,59.0,-99.9,29.90,WSW,243,15.0,32.0,-999,-99.99,,,-99.99,,2013-04-29 20:12:00,
2013-04-29 13:22:00,59.0,-99.9,29.89,WSW,240,13.0,24.0,-999,-99.99,,,-99.99,,2013-04-29 20:22:00,
2013-04-29 13:32:00,59.0,-99.9,29.89,WSW,248,16.0,23.0,-999,-99.99,,,-99.99,,2013-04-29 20:32:00,
2013-04-29 13:43:00,-999.0,-99.9,29.89,WSW,250,14.0,21.0,-999,-99.99,,,-99.99,,2013-04-29 20:43:00,
2013-04-29 13:52:00,60.0,-99.9,29.89,North,-999,-999.0,-999.0,-999,-99.99,,,-99.99,,2013-04-29 20:52:00,
2013-04-29 14:02:00,60.0,-99.9,29.88,WSW,250,17.0,23.0,-999,-99.99,,,-99.99,,2013-04-29 21:02:00,
2013-04-29 14:12:00,60.0,-99.9,29.88,WSW,247,17.0,24.0,-999,-99.99,,,-99.99,,2013-04-29 21:12:00,
2013-04-29 14:22:00,-999.0,-99.9,29.87,WSW,248,20.0,25.0,-999,-99.99,,,-99.99,,2013-04-29 21:22:00,
2013-04-29 14:33:00,60.0,-99.9,29.87,WSW,249,19.0,23.0,-999,-99.99,,,-99.99,,2013-04-29 21:33:00,
2013-04-29 14:53:00,59.0,-99.9,29.86,North,-999,-999.0,-999.0,-999,-99.99,,,-99.99,,2013-04-29 21:53:00,
2013-04-29 15:03:00,59.0,-99.9,29.86,WSW,247,19.0,26.0,-999,-99.99,,,-99.99,,2013-04-29 22:03:00,
2013-04-29 15:13:00,59.0,-99.9,29.86,WSW,243,19.0,26.0,-999,-99.99,,,-99.99,,2013-04-29 22:13:00,
2013-04-29 15:23:00,59.0,-99.9,29.85,WSW,243,18.0,27.0,-999,-99.99,,,-99.99,,2013-04-29 22:23:00,
2013-04-29 15:33:00,59.0,-99.9,29.85,WSW,244,19.0,26.0,-999,-99.99,,,-99.99,,2013-04-29 22:33:00,
2013-04-29 15:42:00,60.0,-99.9,29.85,WSW,248,18.0,24.0,-999,-99.99,,,-99.99,,2013-04-29 22:42:00,
2013-04-29 15:53:00,61.0,-99.9,29.85,WSW,246,15.0,22.0,-999,-99.99,,,-99.99,,2013-04-29 22:53:00,
2013-04-29 16:02:00,60.0,-99.9,29.85,WSW,251,16.0,24.0,-999,-99.99,,,-99.99,,2013-04-29 23:02:00,
2013-04-29 16:12:00,62.0,-99.9,29.84,WSW,238,14.0,20.0,-999,-99.99,,,-99.99,,2013-04-29 23:12:00,
2013-04-29 16:22:00,63.0,-99.9,29.83,SW,234,10.0,19.0,-999,-99.99,,,-99.99,,2013-04-29 23:22:00,
2013-04-29 16:32:00,62.0,-99.9,29.83,North,-999,-999.0,-999.0,-999,-99.99,,,-99.99,,2013-04-29 23:32:00,
2013-04-29 16:42:00,62.0,-99.9,29.83,SW,228,16.0,21.0,-999,-99.99,,,-99.99,,2013-04-29 23:42:00,
2013-04-29 16:53:00,-999.0,-99.9,29.83,SW,231,15.0,20.0,-999,-99.99,,,-99.99,,2013-04-29 23:53:00,
2013-04-29 17:01:00,63.0,-99.9,29.82,SW,227,15.0,23.0,-999,-99.99,,,-99.99,,2013-04-30 00:01:00,
2013-04-29 17:11:00,62.0,-99.9,29.82,WSW,242,17.0,25.0,-999,-99.99,,,-99.99,,2013-04-30 00:11:00,
2013-04-29 17:22:00,61.0,-99.9,29.81,WSW,240,17.0,24.0,-999,-99.99,,,-99.99,,2013-04-30 00:22:00,
2013-04-29 17:32:00,61.0,-99.9,29.81,WSW,246,19.0,37.0,-999,-99.99,,,-99.99,,2013-04-30 00:32:00,
2013-04-29 17:42:00,61.0,-99.9,29.80,WSW,242,20.0,26.0,-999,-99.99,,,-99.99,,2013-04-30 00:42:00,
2013-04-29 17:52:00,-999.0,-99.9,29.80,WSW,243,17.0,24.0,-999,-99.99,,,-99.99,,2013-04-30 00:52:00,
2013-04-29 18:02:00,61.0,-99.9,29.80,WSW,245,18.0,24.0,-999,-99.99,,,-99.99,,2013-04-30 01:02:00,
2013-04-29 18:11:00,61.0,-99.9,29.79,WSW,239,18.0,26.0,-999,-99.99,,,-99.99,,2013-04-30 01:11:00,
2013-04-29 18:22:00,60.0,-99.9,29.79,North,-999,-999.0,-999.0,-999,-99.99,,,-99.99,,2013-04-30 01:22:00,
2013-04-29 18:32:00,-999.0,-99.9,29.79,WSW,238,20.0,29.0,-999,-99.99,,,-99.99,,2013-04-30 01:32:00,
2013-04-29 18:42:00,-999.0,-99.9,29.79,WSW,241,20.0,28.0,-999,-99.99,,,-99.99,,2013-04-30 01:42:00,
2013-04-29 18:52:00,59.0,-99.9,29.78,WSW,242,20.0,27.0,-999,-99.99,,,-99.99,,2013-04-30 01:52:00,
2013-04-29 19:01:00,-999.0,-99.9,29.78,WSW,240,20.0,28.0,-999,-99.99,,,-99.99,,2013-04-30 02:01:00,
2013-04-29 19:11:00,59.0,-99.9,29.78,WSW,244,19.0,27.0,-999,-99.99,,,-99.99,,2013-04-30 02:11:00,
2013-04-29 19:21:00,59.0,-99.9,29.78,North,-999,-999.0,-999.0,-999,-99.99,,,-99.99,,2013-04-30 02:21:00,
2013-04-29 19:32:00,60.0,-99.9,29.78,WSW,238,17.0,23.0,-999,-99.99,,,-99.99,,2013-04-30 02:32:00,
2013-04-29 19:42:00,60.0,-99.9,29.78,WSW,237,14.0,23.0,-999,-99.99,,,-99.99,,2013-04-30 02:42:00,
2013-04-29 19:52:00,59.0,-99.9,29.78,WSW,242,14.0,22.0,-999,-99.99,,,-99.99,,2013-04-30 02:52:00,
2013-04-29 20:01:00,58.0,-99.9,29.78,WSW,241,15.0,21.0,-999,-99.99,,,-99.99,,2013-04-30 03:01:00,
2013-04-29 20:11:00,58.0,-99.9,29.78,WSW,243,17.0,22.0,-999,-99.99,,,-99.99,,2013-04-30 03:11:00,
2013-04-29 20:22:00,-999.0,-99.9,29.79,WSW,239,15.0,22.0,-999,-99.99,,,-99.99,,2013-04-30 03:22:00,
2013-04-29 20:33:00,60.0,-99.9,29.78,WSW,239,15.0,21.0,-999,-99.99,,,-99.99,,2013-04-30 03:33:00,
2013-04-29 20:43:00,60.0,-99.9,29.79,WSW,244,15.0,20.0,-999,-99.99,,,-99.99,,2013-04-30 03:43:00,
2013-04-29 20:53:00,58.0,-99.9,29.79,SW,232,13.0,19.0,-999,-99.99,,,-99.99,,2013-04-30 03:53:00,
2013-04-29 21:02:00,57.0,-99.9,29.79,SW,230,12.0,20.0,-999,-99.99,,,-99.99,,2013-04-30 04:02:00,
2013-04-29 21:12:00,57.0,-99.9,29.79,WSW,237,15.0,21.0,-999,-99.99,,,-99.99,,2013-04-30 04:12:00,
2013-04-29 21:22:00,58.0,-99.9,29.80,WSW,246,14.0,21.0,-999,-99.99,,,-99.99,,2013-04-30 04:22:00,
2013-04-29 21:32:00,-999.0,-99.9,29.80,WSW,242,15.0,19.0,-999,-99.99,,,-99.99,,2013-04-30 04:32:00,
2013-04-29 21:42:00,56.0,-99.9,29.80,WSW,237,14.0,22.0,-999,-99.99,,,-99.99,,2013-04-30 04:42:00,
2013-04-29 21:52:00,55.0,-99.9,29.80,North,-999,-999.0,-999.0,-999,-99.99,,,-99.99,,2013-04-30 04:52:00,
2013-04-29 22:02:00,55.0,-99.9,29.80,SW,228,13.0,19.0,-999,-99.99,,,-99.99,,2013-04-30 05:02:00,
2013-04-29 22:12:00,55.0,-99.9,29.80,SW,231,12.0,17.0,-999,-99.99,,,-99.99,,2013-04-30 05:12:00,
2013-04-29 22:22:00,55.0,-99.9,29.81,SW,230,10.0,17.0,-999,-99.99,,,-99.99,,2013-04-30 05:22:00,
2013-04-29 22:32:00,55.0,-99.9,29.81,SW,222,11.0,17.0,-999,-99.99,,,-99.99,,2013-04-30 05:32:00,
2013-04-29 22:42:00,55.0,-99.9,29.81,SW,220,11.0,17.0,-999,-99.99,,,-99.99,,2013-04-30 05:42:00,
2013-04-29 22:51:00,55.0,-99.9,29.81,SW,224,12.0,17.0,-999,-99.99,,,-99.99,,2013-04-30 05:51:00,
2013-04-29 23:02:00,55.0,-99.9,29.81,WSW,237,11.0,15.0,-999,-99.99,,,-99.99,,2013-04-30 06:02:00,
2013-04-29 23:21:00,-999.0,-99.9,29.81,SW,219,12.0,15.0,-999,-99.99,,,-99.99,,2013-04-30 06:21:00,
2013-04-29 23:32:00,54.0,-99.9,29.81,SW,223,13.0,17.0,-999,-99.99,,,-99.99,,2013-04-30 06:32:00,
2013-04-29 23:42:00,-999.0,-99.9,29.81,SW,224,12.0,20.0,-999,-99.99,,,-99.99,,2013-04-30 06:42:00,
2013-04-29 23:52:00,-999.0,-99.9,29.81,SW,222,11.0,16.0,-999,-99.99,,,-99.99,,2013-04-30 06:52:00,